createdAt,value
2019-03-21T00:00:57.669Z,26.90
2019-03-21T00:01:57.653Z,26.40
2019-03-21T00:02:57.622Z,26.40
2019-03-21T00:03:57.601Z,26.70
2019-03-21T00:04:57.587Z,25.10
2019-03-21T00:05:57.556Z,25.50
2019-03-21T00:06:57.541Z,23.50
2019-03-21T00:07:57.527Z,26.90
2019-03-21T00:08:57.489Z,24.40
2019-03-21T00:09:57.471Z,27.90
2019-03-21T00:10:57.446Z,28.30
2019-03-21T00:11:57.423Z,26.10
2019-03-21T00:12:57.402Z,26.80
2019-03-21T00:14:06.633Z,26.70
2019-03-21T00:14:57.471Z,28.50
2019-03-21T00:15:57.337Z,27.20
2019-03-21T00:16:57.322Z,24.60
2019-03-21T00:17:57.293Z,27.00
2019-03-21T00:18:57.272Z,28.40
2019-03-21T00:19:57.257Z,29.10
2019-03-21T00:20:57.229Z,26.90
2019-03-21T00:21:57.207Z,27.60
2019-03-21T00:22:57.235Z,28.30
2019-03-21T00:23:57.162Z,27.20
2019-03-21T00:24:57.140Z,29.70
2019-03-21T00:25:57.124Z,29.00
2019-03-21T00:26:57.096Z,29.90
2019-03-21T00:27:57.072Z,113.20
2019-03-21T00:28:57.059Z,145.20
2019-03-21T00:29:57.028Z,296.20
2019-03-21T00:30:57.013Z,104.90
2019-03-21T00:31:56.991Z,116.20
2019-03-21T00:32:56.964Z,679.20
2019-03-21T00:33:56.946Z,262.90
2019-03-21T00:34:56.921Z,186.00
2019-03-21T00:35:56.900Z,202.40
2019-03-21T00:36:56.879Z,378.50
2019-03-21T00:37:56.854Z,509.70
2019-03-21T00:38:56.833Z,368.00
2019-03-21T00:39:56.814Z,177.30
2019-03-21T00:40:56.791Z,999.90
2019-03-21T00:41:56.767Z,423.70
2019-03-21T00:42:56.758Z,172.20
2019-03-21T00:43:56.723Z,247.00
2019-03-21T00:44:56.702Z,583.50
2019-03-21T00:45:56.688Z,258.40
2019-03-21T00:46:56.658Z,710.10
2019-03-21T00:47:56.640Z,242.20
2019-03-21T00:48:56.619Z,270.00
2019-03-21T00:49:56.599Z,242.70
2019-03-21T00:50:56.570Z,828.10
2019-03-21T00:51:56.548Z,477.80
2019-03-21T00:52:56.531Z,198.10
2019-03-21T00:53:56.504Z,281.70
2019-03-21T00:54:56.491Z,836.10
2019-03-21T00:55:56.464Z,162.20
2019-03-21T00:56:56.440Z,698.90
2019-03-21T00:57:58.535Z,161.90
2019-03-21T00:58:56.396Z,183.40
2019-03-21T00:59:56.373Z,225.10
2019-03-21T01:00:56.353Z,400.00
2019-03-21T01:01:56.330Z,207.40
2019-03-21T01:02:56.308Z,87.60
2019-03-21T01:03:56.286Z,79.10
2019-03-21T01:04:56.264Z,48.90
2019-03-21T01:05:56.254Z,39.80
2019-03-21T01:06:56.226Z,37.00
2019-03-21T01:07:56.195Z,39.30
2019-03-21T01:08:56.176Z,35.40
2019-03-21T01:09:56.155Z,34.80
2019-03-21T01:10:56.133Z,35.00
2019-03-21T01:11:56.121Z,33.70
2019-03-21T01:12:56.089Z,32.60
2019-03-21T01:13:56.064Z,31.70
2019-03-21T01:14:56.046Z,31.80
2019-03-21T01:15:56.021Z,30.80
2019-03-21T01:16:56.007Z,31.80
2019-03-21T01:17:55.978Z,32.90
2019-03-21T01:18:55.957Z,31.10
2019-03-21T01:19:55.944Z,31.40
2019-03-21T01:20:55.911Z,31.30
2019-03-21T01:21:55.893Z,30.30
2019-03-21T01:22:55.886Z,31.10
2019-03-21T01:23:55.848Z,32.70
2019-03-21T01:24:55.828Z,31.60
2019-03-21T01:25:55.803Z,30.60
2019-03-21T01:26:55.790Z,31.90
2019-03-21T01:27:55.758Z,32.60
2019-03-21T01:28:55.736Z,31.40
2019-03-21T01:29:55.717Z,31.10
2019-03-21T01:30:55.691Z,30.90
2019-03-21T01:31:55.670Z,33.40
2019-03-21T01:32:55.648Z,33.00
2019-03-21T01:33:55.625Z,32.00
2019-03-21T01:34:55.605Z,33.30
2019-03-21T01:35:55.581Z,31.50
2019-03-21T01:36:55.570Z,33.20
2019-03-21T01:37:55.539Z,31.80
2019-03-21T01:38:55.518Z,31.20
2019-03-21T01:39:55.496Z,32.20
2019-03-21T01:40:55.474Z,31.90
2019-03-21T01:41:55.454Z,31.50
2019-03-21T01:42:55.428Z,30.30
2019-03-21T01:43:55.407Z,29.30
2019-03-21T01:44:55.386Z,29.10
2019-03-21T01:45:55.361Z,29.10
2019-03-21T01:46:55.341Z,27.90
2019-03-21T01:47:55.330Z,29.30
2019-03-21T01:48:55.296Z,29.30
2019-03-21T01:49:55.278Z,29.10
2019-03-21T01:50:55.255Z,28.70
2019-03-21T01:51:55.236Z,29.90
2019-03-21T01:52:55.208Z,30.30
2019-03-21T01:53:55.190Z,30.70
2019-03-21T01:54:55.167Z,31.70
2019-03-21T01:55:55.141Z,32.40
2019-03-21T01:56:55.124Z,30.80
2019-03-21T01:57:55.105Z,31.00
2019-03-21T01:58:55.076Z,32.20
2019-03-21T01:59:55.052Z,30.40
2019-03-21T02:00:55.032Z,31.70
2019-03-21T02:01:55.011Z,30.30
2019-03-21T02:02:54.986Z,29.70
2019-03-21T02:03:54.962Z,30.60
2019-03-21T02:04:54.944Z,30.20
2019-03-21T02:05:54.926Z,29.50
2019-03-21T02:06:54.900Z,30.70
2019-03-21T02:07:54.896Z,29.90
2019-03-21T02:08:54.853Z,28.60
2019-03-21T02:09:54.831Z,29.50
2019-03-21T02:10:54.810Z,30.30
2019-03-21T02:11:54.787Z,28.80
2019-03-21T02:12:54.776Z,27.90
2019-03-21T02:13:54.746Z,29.40
2019-03-21T02:14:54.724Z,27.00
2019-03-21T02:15:54.698Z,27.80
2019-03-21T02:16:54.683Z,27.70
2019-03-21T02:17:54.655Z,26.70
2019-03-21T02:18:54.632Z,27.80
2019-03-21T02:19:54.616Z,27.10
2019-03-21T02:20:54.595Z,29.00
2019-03-21T02:21:54.571Z,27.00
2019-03-21T02:22:54.543Z,27.60
2019-03-21T02:23:54.521Z,27.00
2019-03-21T02:24:54.505Z,29.40
2019-03-21T02:25:54.476Z,28.40
2019-03-21T02:26:54.466Z,27.60
2019-03-21T02:27:54.441Z,28.30
2019-03-21T02:28:54.412Z,27.80
2019-03-21T02:29:54.390Z,27.70
2019-03-21T02:30:54.373Z,27.80
2019-03-21T02:31:54.345Z,28.60
2019-03-21T02:32:54.323Z,26.30
2019-03-21T02:33:54.306Z,27.50
2019-03-21T02:34:54.279Z,27.80
2019-03-21T02:35:54.267Z,27.20
2019-03-21T02:36:54.234Z,27.80
2019-03-21T02:37:54.214Z,28.40
2019-03-21T02:38:54.191Z,27.20
2019-03-21T02:39:59.842Z,26.90
2019-03-21T02:40:54.147Z,27.60
2019-03-21T02:41:54.123Z,25.90
2019-03-21T02:42:54.104Z,26.30
2019-03-21T02:43:54.081Z,27.50
2019-03-21T02:45:07.800Z,25.80
2019-03-21T02:45:54.064Z,25.90
2019-03-21T02:46:54.013Z,26.20
2019-03-21T02:47:53.990Z,25.80
2019-03-21T02:48:53.969Z,26.00
2019-03-21T02:49:53.946Z,27.80
2019-03-21T02:50:53.932Z,26.30
2019-03-21T02:51:53.910Z,25.90
2019-03-21T02:52:53.883Z,26.20
2019-03-21T02:53:53.859Z,26.70
2019-03-21T02:54:53.844Z,25.40
2019-03-21T02:55:53.833Z,25.30
2019-03-21T02:56:53.795Z,26.40
2019-03-21T02:57:53.772Z,26.00
2019-03-21T02:58:53.747Z,25.60
2019-03-21T02:59:53.727Z,26.90
2019-03-21T03:00:53.706Z,25.80
2019-03-21T03:01:53.681Z,25.90
2019-03-21T03:02:53.672Z,25.30
2019-03-21T03:03:53.676Z,26.50
2019-03-21T03:04:53.618Z,24.30
2019-03-21T03:05:53.593Z,26.30
2019-03-21T03:06:53.575Z,23.10
2019-03-21T03:07:53.547Z,26.30
2019-03-21T03:08:53.527Z,27.10
2019-03-21T03:09:53.514Z,27.80
2019-03-21T03:10:53.480Z,26.30
2019-03-21T03:11:53.473Z,27.30
2019-03-21T03:12:53.459Z,25.70
2019-03-21T03:13:53.435Z,25.00
2019-03-21T03:14:53.392Z,25.20
2019-03-21T03:15:53.375Z,26.80
2019-03-21T03:16:53.357Z,25.60
2019-03-21T03:17:53.327Z,26.30
2019-03-21T03:18:53.309Z,26.50
2019-03-21T03:19:53.294Z,26.90
2019-03-21T03:20:53.262Z,24.50
2019-03-21T03:21:53.239Z,27.20
2019-03-21T03:22:53.224Z,26.30
2019-03-21T03:23:53.198Z,26.90
2019-03-21T03:24:53.173Z,28.10
2019-03-21T03:25:53.150Z,26.80
2019-03-21T03:26:53.138Z,26.90
2019-03-21T03:27:53.120Z,27.20
2019-03-21T03:28:53.113Z,27.00
2019-03-21T03:29:53.062Z,28.10
2019-03-21T03:30:53.061Z,27.20
2019-03-21T03:31:53.021Z,27.70
2019-03-21T03:32:52.996Z,25.70
2019-03-21T03:33:52.977Z,27.50
2019-03-21T03:34:52.953Z,27.80
2019-03-21T03:35:52.930Z,28.70
2019-03-21T03:36:52.929Z,28.00
2019-03-21T03:37:52.886Z,27.90
2019-03-21T03:38:52.865Z,28.40
2019-03-21T03:39:52.846Z,28.20
2019-03-21T03:40:52.829Z,28.50
2019-03-21T03:41:52.801Z,27.30
2019-03-21T03:42:52.778Z,26.40
2019-03-21T03:43:52.771Z,28.10
2019-03-21T03:44:52.729Z,27.20
2019-03-21T03:45:52.719Z,28.30
2019-03-21T03:46:52.696Z,27.20
2019-03-21T03:47:52.670Z,28.20
2019-03-21T03:48:52.649Z,28.30
2019-03-21T03:49:52.620Z,27.80
2019-03-21T03:50:52.610Z,28.10
2019-03-21T03:51:52.576Z,26.90
2019-03-21T03:52:52.552Z,26.20
2019-03-21T03:53:52.531Z,26.00
2019-03-21T03:54:52.513Z,26.80
2019-03-21T03:55:52.489Z,27.80
2019-03-21T03:56:52.468Z,27.00
2019-03-21T03:57:52.445Z,26.70
2019-03-21T03:58:52.434Z,27.50
2019-03-21T03:59:52.404Z,28.20
2019-03-21T04:00:52.383Z,27.20
2019-03-21T04:01:52.356Z,28.40
2019-03-21T04:02:52.335Z,26.40
2019-03-21T04:03:52.311Z,28.50
2019-03-21T04:04:52.289Z,27.80
2019-03-21T04:05:52.269Z,27.50
2019-03-21T04:06:52.248Z,26.50
2019-03-21T04:07:52.227Z,27.50
2019-03-21T04:08:52.202Z,28.10
2019-03-21T04:09:52.203Z,28.20
2019-03-21T04:10:52.159Z,28.70
2019-03-21T04:11:52.136Z,28.10
2019-03-21T04:12:52.115Z,28.80
2019-03-21T04:13:52.090Z,27.70
2019-03-21T04:14:52.067Z,29.50
2019-03-21T04:15:53.795Z,28.20
2019-03-21T04:16:52.023Z,29.30
2019-03-21T04:17:52.013Z,29.70
2019-03-21T04:18:51.979Z,29.00
2019-03-21T04:19:51.958Z,28.40
2019-03-21T04:20:51.940Z,27.40
2019-03-21T04:21:51.919Z,29.50
2019-03-21T04:22:51.891Z,28.50
2019-03-21T04:23:51.876Z,30.10
2019-03-21T04:24:51.845Z,29.10
2019-03-21T04:25:51.830Z,29.50
2019-03-21T04:26:51.812Z,29.30
2019-03-21T04:27:51.783Z,28.90
2019-03-21T04:28:51.757Z,27.60
2019-03-21T04:29:51.739Z,29.10
2019-03-21T04:30:51.723Z,28.80
2019-03-21T04:31:51.697Z,28.40
2019-03-21T04:32:51.685Z,27.60
2019-03-21T04:33:51.672Z,27.90
2019-03-21T04:34:51.626Z,27.80
2019-03-21T04:35:51.611Z,28.90
2019-03-21T04:36:51.598Z,31.10
2019-03-21T04:37:51.561Z,28.60
2019-03-21T04:38:51.540Z,30.20
2019-03-21T04:39:51.520Z,28.30
2019-03-21T04:40:51.492Z,29.20
2019-03-21T04:41:51.472Z,28.80
2019-03-21T04:42:51.449Z,30.30
2019-03-21T04:43:51.425Z,29.00
2019-03-21T04:44:51.406Z,29.70
2019-03-21T04:46:02.540Z,29.10
2019-03-21T04:46:51.359Z,29.00
2019-03-21T04:47:51.341Z,30.70
2019-03-21T04:48:51.314Z,29.40
2019-03-21T04:49:51.292Z,29.70
2019-03-21T04:50:51.274Z,28.10
2019-03-21T04:51:51.258Z,29.00
2019-03-21T04:52:51.227Z,30.40
2019-03-21T04:53:53.366Z,30.10
2019-03-21T04:54:51.182Z,30.10
2019-03-21T04:55:51.160Z,30.20
2019-03-21T04:56:51.137Z,30.30
2019-03-21T04:57:51.115Z,30.80
2019-03-21T04:58:51.098Z,30.90
2019-03-21T04:59:51.075Z,31.30
2019-03-21T05:00:51.053Z,31.50
2019-03-21T05:01:51.832Z,31.10
2019-03-21T05:02:51.005Z,33.20
2019-03-21T05:03:50.995Z,30.50
2019-03-21T05:04:50.963Z,32.00
2019-03-21T05:05:50.938Z,32.20
2019-03-21T05:06:50.921Z,33.90
2019-03-21T05:07:50.894Z,32.10
2019-03-21T05:08:50.873Z,31.90
2019-03-21T05:09:50.850Z,31.60
2019-03-21T05:10:50.829Z,32.10
2019-03-21T05:11:50.804Z,32.60
2019-03-21T05:12:50.782Z,32.90
2019-03-21T05:13:50.761Z,33.50
2019-03-21T05:14:50.740Z,33.40
2019-03-21T05:15:50.721Z,33.10
2019-03-21T05:16:50.693Z,34.10
2019-03-21T05:17:50.670Z,33.70
2019-03-21T05:18:50.651Z,34.20
2019-03-21T05:19:50.627Z,34.60
2019-03-21T05:20:50.610Z,33.40
2019-03-21T05:21:50.584Z,33.10
2019-03-21T05:22:50.565Z,32.60
2019-03-21T05:23:50.547Z,35.10
2019-03-21T05:24:50.526Z,34.70
2019-03-21T05:25:50.495Z,33.30
2019-03-21T05:26:50.472Z,33.60
2019-03-21T05:27:50.450Z,33.00
2019-03-21T05:28:50.429Z,33.50
2019-03-21T05:29:50.407Z,33.90
2019-03-21T05:30:50.386Z,33.90
2019-03-21T05:31:50.359Z,34.30
2019-03-21T05:32:50.344Z,34.80
2019-03-21T05:33:50.317Z,33.10
2019-03-21T05:34:50.293Z,34.40
2019-03-21T05:35:50.308Z,34.60
2019-03-21T05:36:50.596Z,35.00
2019-03-21T05:37:50.228Z,34.50
2019-03-21T05:38:50.207Z,34.00
2019-03-21T05:39:50.182Z,33.40
2019-03-21T05:40:50.165Z,33.10
2019-03-21T05:41:50.139Z,33.70
2019-03-21T05:42:50.121Z,33.70
2019-03-21T05:43:50.098Z,32.60
2019-03-21T05:44:50.071Z,32.50
2019-03-21T05:45:50.052Z,34.30
2019-03-21T05:46:50.028Z,34.30
2019-03-21T05:47:50.004Z,34.10
2019-03-21T05:48:49.983Z,32.20
2019-03-21T05:49:49.961Z,32.90
2019-03-21T05:50:49.939Z,33.20
2019-03-21T05:51:49.919Z,33.20
2019-03-21T05:52:49.894Z,31.80
2019-03-21T05:53:49.871Z,32.40
2019-03-21T05:54:49.854Z,32.00
2019-03-21T05:55:49.828Z,32.10
2019-03-21T05:56:49.803Z,31.50
2019-03-21T05:57:49.781Z,32.10
2019-03-21T05:58:49.771Z,31.40
2019-03-21T05:59:49.738Z,31.20
2019-03-21T06:00:51.353Z,31.90
2019-03-21T06:01:49.691Z,31.70
2019-03-21T06:02:49.669Z,31.90
2019-03-21T06:03:49.661Z,31.70
2019-03-21T06:04:49.625Z,32.30
2019-03-21T06:05:49.603Z,30.60
2019-03-21T06:06:49.584Z,31.10
2019-03-21T06:07:49.559Z,31.80
2019-03-21T06:08:49.534Z,32.60
2019-03-21T06:09:49.513Z,31.10
2019-03-21T06:10:49.501Z,32.50
2019-03-21T06:11:49.521Z,31.10
2019-03-21T06:12:49.449Z,31.10
2019-03-21T06:13:49.426Z,31.20
2019-03-21T06:14:49.402Z,31.50
2019-03-21T06:15:49.378Z,32.20
2019-03-21T06:16:49.361Z,31.20
2019-03-21T06:17:49.335Z,30.90
2019-03-21T06:18:49.311Z,31.70
2019-03-21T06:19:49.308Z,31.10
2019-03-21T06:20:49.266Z,33.00
2019-03-21T06:21:49.250Z,32.40
2019-03-21T06:22:49.233Z,31.40
2019-03-21T06:23:49.200Z,33.30
2019-03-21T06:24:49.177Z,32.60
2019-03-21T06:25:49.155Z,32.70
2019-03-21T06:26:50.416Z,32.90
2019-03-21T06:27:49.110Z,32.90
2019-03-21T06:28:49.085Z,32.80
2019-03-21T06:29:49.066Z,32.10
2019-03-21T06:30:49.044Z,33.30
2019-03-21T06:31:49.025Z,32.20
2019-03-21T06:32:48.999Z,33.10
2019-03-21T06:33:48.974Z,33.00
2019-03-21T06:34:48.956Z,34.50
2019-03-21T06:35:48.931Z,32.50
2019-03-21T06:36:48.907Z,32.20
2019-03-21T06:37:48.887Z,34.10
2019-03-21T06:38:48.863Z,32.40
2019-03-21T06:39:48.844Z,33.80
2019-03-21T06:40:48.818Z,32.40
2019-03-21T06:41:48.800Z,33.10
2019-03-21T06:42:48.778Z,32.60
2019-03-21T06:43:48.754Z,32.00
2019-03-21T06:44:48.729Z,32.30
2019-03-21T06:45:48.708Z,31.90
2019-03-21T06:46:49.873Z,32.50
2019-03-21T06:47:48.660Z,31.70
2019-03-21T06:48:48.643Z,30.00
2019-03-21T06:49:48.620Z,32.50
2019-03-21T06:50:48.597Z,31.30
2019-03-21T06:51:48.573Z,30.90
2019-03-21T06:52:48.567Z,30.90
2019-03-21T06:53:48.529Z,31.80
2019-03-21T06:54:48.507Z,31.10
2019-03-21T06:55:48.481Z,31.00
2019-03-21T06:56:48.460Z,30.50
2019-03-21T06:57:48.446Z,31.20
2019-03-21T06:58:48.418Z,32.60
2019-03-21T06:59:48.393Z,31.80
2019-03-21T07:00:48.385Z,32.40
2019-03-21T07:01:48.350Z,32.40
2019-03-21T07:02:48.329Z,31.90
2019-03-21T07:03:48.307Z,32.10
2019-03-21T07:04:48.291Z,33.00
2019-03-21T07:05:48.262Z,33.20
2019-03-21T07:06:48.245Z,31.30
2019-03-21T07:07:48.216Z,32.40
2019-03-21T07:08:48.194Z,31.00
2019-03-21T07:09:48.178Z,31.60
2019-03-21T07:10:48.152Z,31.10
2019-03-21T07:11:48.129Z,31.60
2019-03-21T07:12:48.103Z,32.50
2019-03-21T07:13:48.090Z,31.30
2019-03-21T07:14:48.061Z,31.20
2019-03-21T07:15:48.040Z,31.00
2019-03-21T07:16:48.017Z,30.90
2019-03-21T07:17:47.991Z,31.50
2019-03-21T07:18:47.972Z,31.20
2019-03-21T07:19:47.952Z,30.80
2019-03-21T07:20:47.928Z,31.50
2019-03-21T07:21:47.910Z,29.00
2019-03-21T07:22:47.885Z,30.20
2019-03-21T07:23:47.862Z,32.50
2019-03-21T07:24:47.837Z,31.80
2019-03-21T07:25:47.811Z,31.00
2019-03-21T07:26:47.793Z,31.50
2019-03-21T07:27:47.767Z,32.00
2019-03-21T07:28:47.745Z,32.40
2019-03-21T07:29:47.726Z,31.50
2019-03-21T07:30:47.704Z,31.30
2019-03-21T07:31:47.686Z,31.70
2019-03-21T07:32:47.657Z,31.90
2019-03-21T07:33:47.637Z,32.20
2019-03-21T07:34:47.615Z,32.10
2019-03-21T07:35:47.600Z,31.10
2019-03-21T07:36:47.571Z,32.30
2019-03-21T07:37:47.546Z,32.40
2019-03-21T07:38:47.525Z,32.50
2019-03-21T07:39:47.512Z,30.70
2019-03-21T07:40:47.480Z,31.20
2019-03-21T07:41:47.462Z,30.80
2019-03-21T07:42:47.435Z,32.10
2019-03-21T07:43:47.410Z,29.80
2019-03-21T07:44:47.406Z,32.00
2019-03-21T07:45:47.369Z,31.70
2019-03-21T07:46:47.352Z,29.50
2019-03-21T07:47:47.323Z,30.90
2019-03-21T07:48:47.307Z,31.10
2019-03-21T07:49:47.287Z,31.70
2019-03-21T07:50:47.256Z,30.40
2019-03-21T07:51:47.235Z,31.50
2019-03-21T07:52:47.212Z,30.30
2019-03-21T07:53:47.194Z,31.20
2019-03-21T07:54:47.182Z,31.50
2019-03-21T07:55:47.148Z,31.80
2019-03-21T07:56:47.136Z,31.10
2019-03-21T07:57:47.108Z,31.20
2019-03-21T07:58:47.092Z,30.80
2019-03-21T07:59:47.062Z,31.10
2019-03-21T08:00:47.039Z,31.70
2019-03-21T08:01:47.014Z,30.90
2019-03-21T08:02:47.007Z,30.90
2019-03-21T08:03:46.969Z,31.00
2019-03-21T08:04:46.963Z,31.10
2019-03-21T08:05:46.928Z,30.20
2019-03-21T08:06:46.917Z,29.60
2019-03-21T08:07:46.882Z,30.30
2019-03-21T08:08:46.861Z,30.60
2019-03-21T08:09:46.839Z,28.80
2019-03-21T08:10:46.822Z,29.70
2019-03-21T08:11:46.799Z,30.30
2019-03-21T08:12:46.779Z,29.60
2019-03-21T08:13:46.752Z,28.40
2019-03-21T08:14:46.732Z,29.20
2019-03-21T08:15:46.716Z,28.70
2019-03-21T08:16:46.692Z,28.00
2019-03-21T08:17:46.662Z,28.70
2019-03-21T08:18:46.644Z,28.10
2019-03-21T08:19:46.673Z,29.30
2019-03-21T08:20:56.307Z,27.90
2019-03-21T08:21:46.578Z,27.40
2019-03-21T08:22:46.558Z,31.10
2019-03-21T08:23:46.535Z,27.20
2019-03-21T08:24:46.521Z,29.40
2019-03-21T08:25:46.491Z,29.40
2019-03-21T08:26:46.468Z,28.80
2019-03-21T08:27:46.446Z,28.50
2019-03-21T08:28:46.426Z,28.20
2019-03-21T08:29:46.402Z,28.20
2019-03-21T08:30:46.382Z,29.00
2019-03-21T08:31:46.361Z,27.70
2019-03-21T08:32:46.341Z,27.10
2019-03-21T08:33:46.319Z,27.00
2019-03-21T08:34:46.300Z,26.80
2019-03-21T08:35:46.272Z,27.10
2019-03-21T08:36:46.252Z,27.70
2019-03-21T08:37:46.230Z,28.60
2019-03-21T08:38:46.209Z,28.40
2019-03-21T08:39:46.185Z,27.80
2019-03-21T08:40:46.165Z,26.70
2019-03-21T08:41:46.143Z,27.50
2019-03-21T08:42:46.124Z,27.50
2019-03-21T08:43:46.101Z,26.50
2019-03-21T08:44:46.080Z,27.20
2019-03-21T08:45:46.064Z,24.70
2019-03-21T08:46:46.040Z,24.70
2019-03-21T08:47:46.015Z,26.10
2019-03-21T08:48:45.996Z,24.90
2019-03-21T08:49:45.971Z,26.20
2019-03-21T08:50:45.959Z,25.90
2019-03-21T08:51:45.931Z,25.10
2019-03-21T08:52:45.928Z,24.40
2019-03-21T08:53:45.887Z,25.20
2019-03-21T08:54:45.867Z,25.40
2019-03-21T08:55:45.843Z,25.80
2019-03-21T08:56:45.831Z,24.80
2019-03-21T08:57:45.800Z,24.50
2019-03-21T08:58:45.780Z,24.90
2019-03-21T08:59:47.982Z,24.00
2019-03-21T09:00:45.737Z,26.10
2019-03-21T09:01:45.716Z,25.00
2019-03-21T09:02:45.694Z,24.90
2019-03-21T09:03:45.673Z,24.80
2019-03-21T09:04:45.653Z,25.40
2019-03-21T09:05:45.633Z,25.20
2019-03-21T09:06:45.608Z,24.60
2019-03-21T09:07:45.588Z,24.10
2019-03-21T09:08:45.571Z,24.50
2019-03-21T09:09:45.553Z,23.90
2019-03-21T09:10:45.546Z,24.70
2019-03-21T09:11:45.501Z,25.30
2019-03-21T09:12:45.479Z,23.80
2019-03-21T09:13:45.458Z,25.40
2019-03-21T09:14:45.438Z,24.50
2019-03-21T09:15:45.413Z,24.30
2019-03-21T09:16:45.391Z,24.60
2019-03-21T09:17:45.372Z,25.40
2019-03-21T09:18:45.358Z,25.40
2019-03-21T09:19:45.399Z,25.70
2019-03-21T09:20:45.311Z,24.80
2019-03-21T09:21:45.302Z,25.70
2019-03-21T09:22:45.265Z,25.90
2019-03-21T09:23:45.243Z,25.60
2019-03-21T09:24:45.222Z,24.10
2019-03-21T09:25:45.202Z,23.30
2019-03-21T09:26:45.182Z,25.30
2019-03-21T09:27:45.158Z,24.90
2019-03-21T09:28:45.139Z,24.70
2019-03-21T09:29:53.370Z,24.20
2019-03-21T09:30:45.093Z,24.90
2019-03-21T09:31:45.071Z,25.60
2019-03-21T09:32:45.052Z,26.30
2019-03-21T09:33:45.031Z,26.70
2019-03-21T09:34:45.009Z,25.50
2019-03-21T09:35:44.988Z,25.30
2019-03-21T09:36:44.968Z,27.00
2019-03-21T09:37:44.947Z,26.10
2019-03-21T09:38:44.927Z,25.50
2019-03-21T09:39:44.914Z,26.40
2019-03-21T09:40:44.884Z,26.00
2019-03-21T09:41:44.865Z,27.10
2019-03-21T09:42:44.846Z,27.30
2019-03-21T09:43:44.820Z,27.00
2019-03-21T09:44:44.806Z,27.70
2019-03-21T09:45:44.783Z,26.40
2019-03-21T09:46:50.852Z,27.30
2019-03-21T09:47:44.746Z,26.90
2019-03-21T09:48:44.724Z,26.70
2019-03-21T09:49:44.697Z,28.20
2019-03-21T09:50:44.677Z,28.10
2019-03-21T09:51:44.660Z,27.10
2019-03-21T09:52:44.634Z,27.10
2019-03-21T09:53:44.623Z,26.60
2019-03-21T09:54:44.594Z,25.20
2019-03-21T09:55:44.576Z,26.50
2019-03-21T09:56:44.553Z,26.10
2019-03-21T09:57:44.532Z,25.10
2019-03-21T09:58:44.513Z,26.70
2019-03-21T09:59:44.498Z,27.30
2019-03-21T10:00:44.477Z,27.30
2019-03-21T10:01:44.450Z,27.80
2019-03-21T10:02:44.435Z,25.20
2019-03-21T10:03:44.409Z,23.50
2019-03-21T10:04:44.392Z,25.30
2019-03-21T10:05:44.375Z,23.60
2019-03-21T10:06:44.346Z,23.90
2019-03-21T10:07:44.328Z,23.90
2019-03-21T10:08:44.307Z,24.00
2019-03-21T10:09:44.285Z,24.50
2019-03-21T10:10:44.265Z,23.80
2019-03-21T10:11:44.245Z,24.20
2019-03-21T10:12:44.225Z,24.80
2019-03-21T10:13:44.207Z,25.40
2019-03-21T10:14:44.185Z,24.70
2019-03-21T10:15:44.165Z,22.60
2019-03-21T10:16:44.148Z,23.20
2019-03-21T10:17:44.126Z,22.70
2019-03-21T10:18:44.105Z,23.90
2019-03-21T10:19:44.083Z,24.70
2019-03-21T10:20:44.064Z,23.40
2019-03-21T10:21:44.045Z,24.40
2019-03-21T10:22:44.022Z,24.60
2019-03-21T10:23:44.003Z,23.20
2019-03-21T10:24:43.989Z,24.10
2019-03-21T10:25:43.966Z,23.50
2019-03-21T10:26:43.942Z,23.90
2019-03-21T10:27:43.920Z,24.30
2019-03-21T10:28:43.902Z,25.10
2019-03-21T10:29:43.884Z,23.00
2019-03-21T10:30:43.862Z,22.40
2019-03-21T10:31:43.845Z,23.20
2019-03-21T10:32:43.826Z,22.60
2019-03-21T10:33:43.807Z,22.50
2019-03-21T10:34:43.790Z,22.90
2019-03-21T10:35:43.761Z,23.90
2019-03-21T10:36:43.740Z,22.10
2019-03-21T10:37:43.723Z,22.00
2019-03-21T10:38:43.701Z,21.10
2019-03-21T10:39:43.682Z,21.80
2019-03-21T10:40:43.665Z,22.50
2019-03-21T10:41:43.652Z,21.50
2019-03-21T10:42:43.621Z,22.50
2019-03-21T10:43:43.601Z,22.10
2019-03-21T10:44:43.588Z,21.30
2019-03-21T10:45:43.573Z,21.50
2019-03-21T10:46:43.544Z,20.60
2019-03-21T10:47:43.577Z,19.20
2019-03-21T10:48:43.509Z,19.10
2019-03-21T10:49:43.487Z,19.60
2019-03-21T10:50:43.468Z,18.70
2019-03-21T10:51:54.104Z,17.10
2019-03-21T10:52:43.433Z,15.80
2019-03-21T10:53:43.405Z,16.40
2019-03-21T10:54:43.388Z,15.50
2019-03-21T10:55:43.368Z,14.80
2019-03-21T10:56:43.347Z,15.70
2019-03-21T10:57:43.328Z,15.10
2019-03-21T10:58:43.309Z,17.20
2019-03-21T10:59:43.307Z,15.40
2019-03-21T11:00:43.267Z,15.20
2019-03-21T11:01:43.248Z,14.20
2019-03-21T11:02:43.229Z,14.70
2019-03-21T11:03:43.246Z,14.70
2019-03-21T11:04:43.188Z,14.60
2019-03-21T11:05:43.169Z,17.30
2019-03-21T11:06:43.155Z,17.10
2019-03-21T11:07:43.137Z,16.80
2019-03-21T11:08:43.112Z,18.10
2019-03-21T11:09:43.091Z,18.10
2019-03-21T11:10:43.071Z,17.40
2019-03-21T11:11:43.048Z,17.20
2019-03-21T11:12:43.029Z,16.90
2019-03-21T11:13:43.009Z,16.20
2019-03-21T11:14:42.994Z,15.30
2019-03-21T11:15:42.971Z,17.30
2019-03-21T11:16:42.951Z,16.80
2019-03-21T11:17:42.933Z,16.60
2019-03-21T11:18:42.914Z,16.80
2019-03-21T11:19:42.893Z,16.30
2019-03-21T11:20:42.874Z,17.40
2019-03-21T11:21:42.855Z,17.50
2019-03-21T11:22:42.837Z,16.30
2019-03-21T11:23:42.824Z,16.90
2019-03-21T11:24:42.802Z,16.40
2019-03-21T11:25:42.776Z,18.60
2019-03-21T11:26:42.757Z,18.60
2019-03-21T11:27:42.754Z,18.50
2019-03-21T11:28:42.757Z,17.30
2019-03-21T11:29:42.701Z,17.10
2019-03-21T11:30:42.679Z,18.20
2019-03-21T11:31:42.659Z,18.20
2019-03-21T11:32:42.655Z,17.60
2019-03-21T11:33:42.621Z,18.70
2019-03-21T11:34:42.601Z,17.70
2019-03-21T11:35:42.580Z,16.50
2019-03-21T11:36:42.564Z,16.60
2019-03-21T11:37:42.552Z,17.40
2019-03-21T11:38:42.524Z,17.30
2019-03-21T11:39:42.516Z,17.70
2019-03-21T11:40:42.490Z,17.40
2019-03-21T11:41:42.466Z,17.90
2019-03-21T11:42:42.445Z,18.80
2019-03-21T11:43:42.431Z,18.70
2019-03-21T11:44:42.414Z,18.50
2019-03-21T11:45:42.389Z,19.60
2019-03-21T11:46:42.374Z,18.20
2019-03-21T11:47:42.473Z,19.50
2019-03-21T11:48:42.334Z,18.40
2019-03-21T11:49:42.316Z,18.60
2019-03-21T11:50:42.291Z,18.10
2019-03-21T11:51:42.286Z,18.90
2019-03-21T11:52:42.255Z,19.30
2019-03-21T11:53:42.233Z,18.00
2019-03-21T11:54:42.223Z,18.60
2019-03-21T11:55:42.194Z,18.90
2019-03-21T11:56:42.181Z,18.30
2019-03-21T11:57:42.234Z,19.10
2019-03-21T11:58:42.144Z,17.90
2019-03-21T11:59:51.393Z,18.70
2019-03-21T12:00:43.819Z,17.80
2019-03-21T12:01:42.079Z,18.40
2019-03-21T12:02:42.069Z,18.50
2019-03-21T12:03:42.040Z,19.00
2019-03-21T12:04:42.021Z,18.30
2019-03-21T12:05:42.001Z,18.10
2019-03-21T12:06:41.982Z,18.40
2019-03-21T12:07:41.962Z,18.50
2019-03-21T12:08:41.945Z,17.00
2019-03-21T12:09:41.926Z,17.60
2019-03-21T12:10:41.904Z,19.10
2019-03-21T12:11:41.886Z,18.40
2019-03-21T12:12:41.893Z,18.80
2019-03-21T12:13:41.853Z,17.80
2019-03-21T12:14:41.989Z,18.10
2019-03-21T12:15:41.809Z,17.20
2019-03-21T12:16:41.793Z,17.50
2019-03-21T12:17:41.775Z,17.00
2019-03-21T12:18:41.753Z,17.20
2019-03-21T12:19:41.731Z,18.70
2019-03-21T12:20:41.725Z,18.20
2019-03-21T12:21:41.704Z,16.70
2019-03-21T12:22:41.676Z,14.70
2019-03-21T12:23:41.657Z,15.70
2019-03-21T12:24:41.639Z,15.50
2019-03-21T12:25:41.619Z,14.70
2019-03-21T12:26:41.599Z,15.80
2019-03-21T12:27:41.582Z,16.80
2019-03-21T12:28:41.566Z,16.70
2019-03-21T12:29:41.555Z,16.90
2019-03-21T12:30:41.524Z,16.40
2019-03-21T12:31:41.516Z,15.90
2019-03-21T12:32:41.488Z,17.70
2019-03-21T12:33:41.465Z,16.30
2019-03-21T12:34:41.461Z,16.40
2019-03-21T12:35:41.427Z,16.20
2019-03-21T12:36:41.416Z,16.00
2019-03-21T12:37:41.389Z,16.30
2019-03-21T12:38:41.373Z,16.50
2019-03-21T12:39:41.355Z,15.60
2019-03-21T12:40:41.345Z,16.10
2019-03-21T12:41:41.321Z,16.40
2019-03-21T12:42:41.296Z,16.60
2019-03-21T12:43:41.275Z,16.60
2019-03-21T12:44:41.258Z,14.80
2019-03-21T12:45:41.239Z,14.80
2019-03-21T12:46:41.219Z,15.20
2019-03-21T12:47:41.202Z,14.50
2019-03-21T12:48:41.181Z,15.80
2019-03-21T12:49:41.163Z,16.00
2019-03-21T12:50:41.152Z,15.40
2019-03-21T12:51:41.130Z,15.50